sensor_id;sensor_type;location;lat;lon;timestamp;pressure;altitude;pressure_sealevel;temperature;humidity
8941;BME280;4505;43.406;23.226;2023-09-18T00:00:56;100363.19;;;17.68;100.00
8941;BME280;4505;43.406;23.226;2023-09-18T00:03:24;100365.34;;;17.71;100.00
8941;BME280;4505;43.406;23.226;2023-09-18T00:05:51;100358.34;;;17.65;100.00
8941;BME280;4505;43.406;23.226;2023-09-18T00:08:18;100356.72;;;17.59;100.00
8941;BME280;4505;43.406;23.226;2023-09-18T00:10:46;100352.94;;;17.60;100.00
8941;BME280;4505;43.406;23.226;2023-09-18T00:13:13;100362.91;;;17.65;100.00
8941;BME280;4505;43.406;23.226;2023-09-18T00:15:39;100350.28;;;17.65;100.00
8941;BME280;4505;43.406;23.226;2023-09-18T00:18:06;100354.06;;;19.50;100.00
8941;BME280;4505;43.406;23.226;2023-09-18T00:20:34;100358.72;;;19.88;100.00
8941;BME280;4505;43.406;23.226;2023-09-18T00:23:01;100354.09;;;19.99;100.00
8941;BME280;4505;43.406;23.226;2023-09-18T00:25:28;100352.66;;;20.16;100.00
8941;BME280;4505;43.406;23.226;2023-09-18T00:27:55;100353.44;;;20.55;100.00
8941;BME280;4505;43.406;23.226;2023-09-18T00:30:22;100352.72;;;20.73;100.00
8941;BME280;4505;43.406;23.226;2023-09-18T00:32:48;100345.00;;;20.28;100.00
8941;BME280;4505;43.406;23.226;2023-09-18T00:35:16;100345.59;;;20.20;100.00
8941;BME280;4505;43.406;23.226;2023-09-18T00:37:44;100343.06;;;20.39;100.00
8941;BME280;4505;43.406;23.226;2023-09-18T00:40:11;100341.81;;;20.60;100.00
8941;BME280;4505;43.406;23.226;2023-09-18T00:42:37;100348.66;;;20.47;100.00
8941;BME280;4505;43.406;23.226;2023-09-18T00:45:04;100340.94;;;20.64;100.00
8941;BME280;4505;43.406;23.226;2023-09-18T00:47:31;100346.00;;;20.71;100.00
8941;BME280;4505;43.406;23.226;2023-09-18T00:49:58;100339.88;;;20.60;100.00
8941;BME280;4505;43.406;23.226;2023-09-18T00:52:24;100339.56;;;20.67;100.00
8941;BME280;4505;43.406;23.226;2023-09-18T00:54:52;100345.06;;;20.57;100.00
8941;BME280;4505;43.406;23.226;2023-09-18T00:57:21;100343.69;;;20.59;100.00
8941;BME280;4505;43.406;23.226;2023-09-18T00:59:47;100345.63;;;20.82;100.00
8941;BME280;4505;43.406;23.226;2023-09-18T01:02:14;100344.63;;;20.73;100.00
8941;BME280;4505;43.406;23.226;2023-09-18T01:04:41;100339.59;;;20.62;100.00
8941;BME280;4505;43.406;23.226;2023-09-18T01:07:09;100338.16;;;20.74;100.00
8941;BME280;4505;43.406;23.226;2023-09-18T01:09:36;100344.00;;;18.77;100.00
8941;BME280;4505;43.406;23.226;2023-09-18T01:12:06;100353.03;;;19.94;100.00
8941;BME280;4505;43.406;23.226;2023-09-18T01:14:35;100356.03;;;19.88;100.00
8941;BME280;4505;43.406;23.226;2023-09-18T01:17:04;100349.44;;;20.14;100.00
8941;BME280;4505;43.406;23.226;2023-09-18T01:19:36;100357.22;;;20.16;100.00
8941;BME280;4505;43.406;23.226;2023-09-18T01:22:03;100353.25;;;20.03;100.00
8941;BME280;4505;43.406;23.226;2023-09-18T01:24:31;100346.41;;;20.21;100.00
8941;BME280;4505;43.406;23.226;2023-09-18T01:26:58;100345.50;;;19.38;100.00
8941;BME280;4505;43.406;23.226;2023-09-18T01:29:24;100350.66;;;18.04;100.00
8941;BME280;4505;43.406;23.226;2023-09-18T01:31:51;100356.53;;;17.91;100.00
8941;BME280;4505;43.406;23.226;2023-09-18T01:34:18;100349.56;;;17.90;100.00
8941;BME280;4505;43.406;23.226;2023-09-18T01:36:46;100350.13;;;17.92;100.00
8941;BME280;4505;43.406;23.226;2023-09-18T01:39:13;100354.13;;;17.94;100.00
8941;BME280;4505;43.406;23.226;2023-09-18T01:41:41;100361.38;;;17.94;100.00
8941;BME280;4505;43.406;23.226;2023-09-18T01:44:09;100357.19;;;18.63;100.00
8941;BME280;4505;43.406;23.226;2023-09-18T01:46:35;100358.97;;;17.97;100.00
8941;BME280;4505;43.406;23.226;2023-09-18T01:49:02;100367.31;;;17.96;100.00
8941;BME280;4505;43.406;23.226;2023-09-18T01:51:29;100366.25;;;17.92;100.00
8941;BME280;4505;43.406;23.226;2023-09-18T01:53:56;100362.47;;;17.93;100.00
8941;BME280;4505;43.406;23.226;2023-09-18T01:56:23;100368.09;;;17.91;100.00
8941;BME280;4505;43.406;23.226;2023-09-18T01:58:51;100358.69;;;17.89;100.00
8941;BME280;4505;43.406;23.226;2023-09-18T02:01:17;100371.34;;;17.88;100.00
8941;BME280;4505;43.406;23.226;2023-09-18T02:03:44;100364.84;;;17.84;100.00
8941;BME280;4505;43.406;23.226;2023-09-18T02:06:11;100361.38;;;17.84;100.00
8941;BME280;4505;43.406;23.226;2023-09-18T02:08:37;100358.44;;;17.85;100.00
8941;BME280;4505;43.406;23.226;2023-09-18T02:11:04;100364.06;;;17.84;100.00
8941;BME280;4505;43.406;23.226;2023-09-18T02:13:30;100368.09;;;17.86;100.00
8941;BME280;4505;43.406;23.226;2023-09-18T02:15:58;100358.69;;;17.89;100.00
8941;BME280;4505;43.406;23.226;2023-09-18T02:18:25;100358.94;;;17.87;100.00
8941;BME280;4505;43.406;23.226;2023-09-18T02:20:51;100361.66;;;17.82;100.00
8941;BME280;4505;43.406;23.226;2023-09-18T02:23:18;100353.81;;;17.81;100.00
8941;BME280;4505;43.406;23.226;2023-09-18T02:25:44;100356.81;;;17.94;100.00
8941;BME280;4505;43.406;23.226;2023-09-18T02:28:12;100359.25;;;18.01;100.00
8941;BME280;4505;43.406;23.226;2023-09-18T02:30:39;100360.63;;;17.98;100.00
8941;BME280;4505;43.406;23.226;2023-09-18T02:33:07;100356.28;;;17.92;100.00
8941;BME280;4505;43.406;23.226;2023-09-18T02:35:35;100346.88;;;17.85;100.00
8941;BME280;4505;43.406;23.226;2023-09-18T02:38:01;100350.34;;;17.80;100.00
8941;BME280;4505;43.406;23.226;2023-09-18T02:40:28;100354.91;;;17.80;100.00
8941;BME280;4505;43.406;23.226;2023-09-18T02:42:54;100353.31;;;17.79;100.00
8941;BME280;4505;43.406;23.226;2023-09-18T02:45:21;100352.19;;;17.75;100.00
8941;BME280;4505;43.406;23.226;2023-09-18T02:47:48;100355.41;;;17.72;100.00
8941;BME280;4505;43.406;23.226;2023-09-18T02:50:16;100358.34;;;17.65;100.00
8941;BME280;4505;43.406;23.226;2023-09-18T02:52:42;100354.06;;;17.69;100.00
8941;BME280;4505;43.406;23.226;2023-09-18T02:55:09;100352.72;;;17.67;100.00
8941;BME280;4505;43.406;23.226;2023-09-18T02:57:36;100352.72;;;17.72;100.00
8941;BME280;4505;43.406;23.226;2023-09-18T03:00:03;100353.56;;;17.72;100.00
8941;BME280;4505;43.406;23.226;2023-09-18T03:02:29;100352.19;;;17.75;100.00
8941;BME280;4505;43.406;23.226;2023-09-18T03:04:56;100354.09;;;17.74;100.00
8941;BME280;4505;43.406;23.226;2023-09-18T03:07:24;100357.81;;;17.68;100.00
8941;BME280;4505;43.406;23.226;2023-09-18T03:09:54;100354.56;;;17.56;100.00
8941;BME280;4505;43.406;23.226;2023-09-18T03:12:21;100349.19;;;17.56;100.00
8941;BME280;4505;43.406;23.226;2023-09-18T03:14:48;100349.97;;;17.57;100.00
8941;BME280;4505;43.406;23.226;2023-09-18T03:17:14;100343.81;;;17.56;100.00
8941;BME280;4505;43.406;23.226;2023-09-18T03:19:41;100341.66;;;17.48;100.00
8941;BME280;4505;43.406;23.226;2023-09-18T03:22:07;100341.66;;;17.48;100.00
8941;BME280;4505;43.406;23.226;2023-09-18T03:24:35;100341.94;;;17.52;100.00
8941;BME280;4505;43.406;23.226;2023-09-18T03:27:02;100336.31;;;17.53;100.00
8941;BME280;4505;43.406;23.226;2023-09-18T03:29:29;100348.88;;;17.48;100.00
8941;BME280;4505;43.406;23.226;2023-09-18T03:31:55;100343.25;;;17.49;100.00
8941;BME280;4505;43.406;23.226;2023-09-18T03:34:23;100343.94;;;17.30;100.00
8941;BME280;4505;43.406;23.226;2023-09-18T03:36:51;100346.59;;;17.20;100.00
8941;BME280;4505;43.406;23.226;2023-09-18T03:39:17;100340.72;;;17.33;100.00
8941;BME280;4505;43.406;23.226;2023-09-18T03:41:46;100342.25;;;17.13;100.00
8941;BME280;4505;43.406;23.226;2023-09-18T03:44:12;100336.38;;;17.22;100.00
8941;BME280;4505;43.406;23.226;2023-09-18T03:46:40;100337.44;;;17.15;100.00
8941;BME280;4505;43.406;23.226;2023-09-18T03:49:06;100331.44;;;17.45;100.00
8941;BME280;4505;43.406;23.226;2023-09-18T03:51:33;100334.56;;;18.14;100.00
8941;BME280;4505;43.406;23.226;2023-09-18T03:53:59;100334.84;;;17.41;100.00
8941;BME280;4505;43.406;23.226;2023-09-18T03:56:26;100340.69;;;17.23;100.00
8941;BME280;4505;43.406;23.226;2023-09-18T03:58:54;100331.63;;;17.34;100.00
8941;BME280;4505;43.406;23.226;2023-09-18T04:01:21;100338.13;;;16.96;100.00
8941;BME280;4505;43.406;23.226;2023-09-18T04:03:48;100336.50;;;16.95;100.00
8941;BME280;4505;43.406;23.226;2023-09-18T04:06:14;100342.03;;;17.87;100.00
8941;BME280;4505;43.406;23.226;2023-09-18T04:08:41;100342.50;;;17.12;100.00
8941;BME280;4505;43.406;23.226;2023-09-18T04:11:07;100346.28;;;17.16;100.00
8941;BME280;4505;43.406;23.226;2023-09-18T04:13:34;100348.84;;;18.39;100.00
8941;BME280;4505;43.406;23.226;2023-09-18T04:16:04;100348.00;;;18.94;100.00
8941;BME280;4505;43.406;23.226;2023-09-18T04:18:30;100346.13;;;19.73;100.00
8941;BME280;4505;43.406;23.226;2023-09-18T04:20:58;100352.44;;;17.68;100.00
8941;BME280;4505;43.406;23.226;2023-09-18T04:23:26;100359.84;;;17.41;100.00
8941;BME280;4505;43.406;23.226;2023-09-18T04:25:53;100364.38;;;17.36;100.00
8941;BME280;4505;43.406;23.226;2023-09-18T04:28:21;100357.69;;;17.43;100.00
8941;BME280;4505;43.406;23.226;2023-09-18T04:30:48;100366.28;;;17.40;100.00
8941;BME280;4505;43.406;23.226;2023-09-18T04:33:16;100360.50;;;17.58;100.00
8941;BME280;4505;43.406;23.226;2023-09-18T04:35:43;100366.13;;;17.62;100.00
8941;BME280;4505;43.406;23.226;2023-09-18T04:38:09;100378.00;;;17.71;100.00
8941;BME280;4505;43.406;23.226;2023-09-18T04:40:36;100373.06;;;17.53;100.00
8941;BME280;4505;43.406;23.226;2023-09-18T04:43:03;100373.66;;;17.60;100.00
8941;BME280;4505;43.406;23.226;2023-09-18T04:45:30;100379.91;;;17.85;100.00
8941;BME280;4505;43.406;23.226;2023-09-18T04:47:56;100384.69;;;17.68;100.00
8941;BME280;4505;43.406;23.226;2023-09-18T04:50:24;100380.41;;;17.72;100.00
8941;BME280;4505;43.406;23.226;2023-09-18T04:52:51;100384.38;;;17.65;100.00
8941;BME280;4505;43.406;23.226;2023-09-18T04:55:20;100386.91;;;17.91;100.00
8941;BME280;4505;43.406;23.226;2023-09-18T04:57:47;100388.75;;;17.76;100.00
8941;BME280;4505;43.406;23.226;2023-09-18T05:00:14;100389.59;;;17.91;100.00
8941;BME280;4505;43.406;23.226;2023-09-18T05:02:41;100391.53;;;18.06;100.00
8941;BME280;4505;43.406;23.226;2023-09-18T05:05:08;100397.88;;;17.75;100.00
8941;BME280;4505;43.406;23.226;2023-09-18T05:07:36;100393.78;;;17.62;100.00
8941;BME280;4505;43.406;23.226;2023-09-18T05:10:03;100392.22;;;17.66;100.00
8941;BME280;4505;43.406;23.226;2023-09-18T05:12:31;100399.03;;;17.99;100.00
8941;BME280;4505;43.406;23.226;2023-09-18T05:14:57;100390.38;;;17.82;100.00
8941;BME280;4505;43.406;23.226;2023-09-18T05:17:39;100400.09;;;17.98;100.00
8941;BME280;4505;43.406;23.226;2023-09-18T05:20:06;100405.25;;;18.19;100.00
8941;BME280;4505;43.406;23.226;2023-09-18T05:22:33;100404.75;;;18.32;100.00
8941;BME280;4505;43.406;23.226;2023-09-18T05:25:01;100405.34;;;18.80;100.00
8941;BME280;4505;43.406;23.226;2023-09-18T05:27:28;100395.88;;;18.27;100.00
8941;BME280;4505;43.406;23.226;2023-09-18T05:29:54;100400.78;;;18.60;100.00
8941;BME280;4505;43.406;23.226;2023-09-18T05:32:21;100396.72;;;18.83;100.00
8941;BME280;4505;43.406;23.226;2023-09-18T05:34:47;100404.25;;;18.96;100.00
8941;BME280;4505;43.406;23.226;2023-09-18T05:37:14;100396.47;;;18.84;100.00
8941;BME280;4505;43.406;23.226;2023-09-18T05:39:40;100405.06;;;18.86;100.00
8941;BME280;4505;43.406;23.226;2023-09-18T05:42:08;100403.44;;;19.10;100.00
8941;BME280;4505;43.406;23.226;2023-09-18T05:44:35;100402.63;;;19.35;100.00
8941;BME280;4505;43.406;23.226;2023-09-18T05:47:04;100403.94;;;19.37;100.00
8941;BME280;4505;43.406;23.226;2023-09-18T05:49:31;100410.06;;;19.53;100.00
8941;BME280;4505;43.406;23.226;2023-09-18T05:51:57;100412.13;;;19.86;100.00
8941;BME280;4505;43.406;23.226;2023-09-18T05:54:24;100410.31;;;20.20;100.00
8941;BME280;4505;43.406;23.226;2023-09-18T05:56:50;100405.09;;;20.39;100.00
8941;BME280;4505;43.406;23.226;2023-09-18T05:59:22;100396.97;;;20.44;100.00
8941;BME280;4505;43.406;23.226;2023-09-18T06:01:52;100396.81;;;20.25;100.00
8941;BME280;4505;43.406;23.226;2023-09-18T06:04:19;100402.88;;;20.02;100.00
8941;BME280;4505;43.406;23.226;2023-09-18T06:06:46;100396.47;;;20.37;100.00
8941;BME280;4505;43.406;23.226;2023-09-18T06:09:13;100392.53;;;20.58;100.00
8941;BME280;4505;43.406;23.226;2023-09-18T06:11:39;100409.91;;;20.47;100.00
8941;BME280;4505;43.406;23.226;2023-09-18T06:14:06;100416.13;;;20.81;100.00
8941;BME280;4505;43.406;23.226;2023-09-18T06:16:34;100415.50;;;20.55;100.00
8941;BME280;4505;43.406;23.226;2023-09-18T06:19:00;100423.81;;;20.20;100.00
8941;BME280;4505;43.406;23.226;2023-09-18T06:21:27;100422.56;;;20.46;100.00
8941;BME280;4505;43.406;23.226;2023-09-18T06:23:54;100423.88;;;20.05;100.00
8941;BME280;4505;43.406;23.226;2023-09-18T06:26:22;100436.09;;;19.87;100.00
8941;BME280;4505;43.406;23.226;2023-09-18T06:28:48;100438.81;;;19.82;100.00
8941;BME280;4505;43.406;23.226;2023-09-18T06:31:16;100424.63;;;19.52;100.00
8941;BME280;4505;43.406;23.226;2023-09-18T06:33:45;100426.28;;;19.28;100.00
8941;BME280;4505;43.406;23.226;2023-09-18T06:36:15;100434.13;;;19.04;100.00
8941;BME280;4505;43.406;23.226;2023-09-18T06:38:42;100432.63;;;19.77;100.00
8941;BME280;4505;43.406;23.226;2023-09-18T06:41:08;100434.00;;;19.74;100.00
8941;BME280;4505;43.406;23.226;2023-09-18T06:43:35;100435.66;;;19.60;100.00
8941;BME280;4505;43.406;23.226;2023-09-18T06:46:02;100434.31;;;19.63;100.00
8941;BME280;4505;43.406;23.226;2023-09-18T06:48:28;100443.94;;;19.79;100.00
8941;BME280;4505;43.406;23.226;2023-09-18T06:50:58;100443.38;;;19.82;100.00
8941;BME280;4505;43.406;23.226;2023-09-18T06:53:26;100434.69;;;20.00;100.00
8941;BME280;4505;43.406;23.226;2023-09-18T06:55:53;100440.03;;;20.54;100.00
8941;BME280;4505;43.406;23.226;2023-09-18T06:58:19;100433.47;;;20.31;100.00
8941;BME280;4505;43.406;23.226;2023-09-18T07:00:46;100439.47;;;20.95;100.00
8941;BME280;4505;43.406;23.226;2023-09-18T07:03:15;100438.78;;;20.80;100.00
8941;BME280;4505;43.406;23.226;2023-09-18T07:05:43;100438.94;;;20.16;100.00
8941;BME280;4505;43.406;23.226;2023-09-18T07:08:11;100437.78;;;20.32;100.00
8941;BME280;4505;43.406;23.226;2023-09-18T07:10:38;100447.31;;;20.15;100.00
8941;BME280;4505;43.406;23.226;2023-09-18T07:13:05;100447.31;;;20.58;100.00
8941;BME280;4505;43.406;23.226;2023-09-18T07:15:31;100444.75;;;21.10;100.00
8941;BME280;4505;43.406;23.226;2023-09-18T07:17:58;100436.53;;;21.49;100.00
8941;BME280;4505;43.406;23.226;2023-09-18T07:20:24;100442.34;;;21.09;100.00
8941;BME280;4505;43.406;23.226;2023-09-18T07:22:51;100448.13;;;20.92;100.00
8941;BME280;4505;43.406;23.226;2023-09-18T07:25:19;100451.13;;;20.86;100.00
8941;BME280;4505;43.406;23.226;2023-09-18T07:27:45;100453.50;;;20.97;100.00
8941;BME280;4505;43.406;23.226;2023-09-18T07:30:12;100449.78;;;20.55;100.00
8941;BME280;4505;43.406;23.226;2023-09-18T07:32:41;100451.38;;;20.89;100.00
8941;BME280;4505;43.406;23.226;2023-09-18T07:35:14;100447.25;;;21.02;100.00
8941;BME280;4505;43.406;23.226;2023-09-18T07:37:41;100449.47;;;21.52;100.00
8941;BME280;4505;43.406;23.226;2023-09-18T07:40:09;100452.78;;;21.20;100.00
8941;BME280;4505;43.406;23.226;2023-09-18T07:42:37;100447.22;;;21.59;100.00
8941;BME280;4505;43.406;23.226;2023-09-18T07:45:04;100452.59;;;21.88;100.00
8941;BME280;4505;43.406;23.226;2023-09-18T07:47:31;100451.63;;;20.93;100.00
8941;BME280;4505;43.406;23.226;2023-09-18T07:49:57;100454.31;;;20.98;100.00
8941;BME280;4505;43.406;23.226;2023-09-18T07:52:24;100457.28;;;21.54;100.00
8941;BME280;4505;43.406;23.226;2023-09-18T07:54:51;100451.38;;;21.52;100.00
8941;BME280;4505;43.406;23.226;2023-09-18T07:57:17;100452.44;;;21.74;100.00
8941;BME280;4505;43.406;23.226;2023-09-18T07:59:46;100453.56;;;21.97;100.00
8941;BME280;4505;43.406;23.226;2023-09-18T08:02:12;100455.78;;;21.95;100.00
8941;BME280;4505;43.406;23.226;2023-09-18T08:04:38;100455.19;;;21.98;100.00
8941;BME280;4505;43.406;23.226;2023-09-18T08:07:04;100442.47;;;22.35;100.00
8941;BME280;4505;43.406;23.226;2023-09-18T08:09:32;100447.75;;;22.45;100.00
8941;BME280;4505;43.406;23.226;2023-09-18T08:12:01;100447.53;;;22.42;100.00
8941;BME280;4505;43.406;23.226;2023-09-18T08:14:28;100440.16;;;22.98;100.00
8941;BME280;4505;43.406;23.226;2023-09-18T08:16:57;100444.59;;;22.38;100.00
8941;BME280;4505;43.406;23.226;2023-09-18T08:19:24;100442.13;;;21.81;100.00
8941;BME280;4505;43.406;23.226;2023-09-18T08:21:51;100443.44;;;21.37;100.00
8941;BME280;4505;43.406;23.226;2023-09-18T08:24:18;100437.09;;;21.70;100.00
8941;BME280;4505;43.406;23.226;2023-09-18T08:26:44;100425.59;;;22.25;100.00
8941;BME280;4505;43.406;23.226;2023-09-18T08:29:11;100433.03;;;22.51;100.00
8941;BME280;4505;43.406;23.226;2023-09-18T08:31:37;100432.03;;;22.98;100.00
8941;BME280;4505;43.406;23.226;2023-09-18T08:34:05;100437.66;;;23.02;100.00
8941;BME280;4505;43.406;23.226;2023-09-18T08:36:32;100434.97;;;23.02;100.00
8941;BME280;4505;43.406;23.226;2023-09-18T08:38:58;100433.88;;;23.75;100.00
8941;BME280;4505;43.406;23.226;2023-09-18T08:41:26;100433.97;;;23.84;100.00
8941;BME280;4505;43.406;23.226;2023-09-18T08:43:55;100430.25;;;24.43;100.00
8941;BME280;4505;43.406;23.226;2023-09-18T08:46:22;100438.16;;;24.53;100.00
8941;BME280;4505;43.406;23.226;2023-09-18T08:48:50;100438.06;;;24.80;100.00
8941;BME280;4505;43.406;23.226;2023-09-18T08:51:18;100435.28;;;23.73;100.00
8941;BME280;4505;43.406;23.226;2023-09-18T08:53:44;100432.34;;;23.96;100.00
8941;BME280;4505;43.406;23.226;2023-09-18T08:56:12;100430.72;;;24.23;100.00
8941;BME280;4505;43.406;23.226;2023-09-18T08:58:40;100429.59;;;24.24;100.00
8941;BME280;4505;43.406;23.226;2023-09-18T09:01:08;100429.03;;;23.72;100.00
8941;BME280;4505;43.406;23.226;2023-09-18T09:03:35;100431.06;;;23.94;100.00
8941;BME280;4505;43.406;23.226;2023-09-18T09:06:01;100427.94;;;23.87;100.00
8941;BME280;4505;43.406;23.226;2023-09-18T09:08:30;100424.84;;;24.65;100.00
8941;BME280;4505;43.406;23.226;2023-09-18T09:10:56;100410.22;;;25.27;100.00
8941;BME280;4505;43.406;23.226;2023-09-18T09:13:23;100415.88;;;25.78;100.00
8941;BME280;4505;43.406;23.226;2023-09-18T09:15:51;100412.44;;;26.63;100.00
8941;BME280;4505;43.406;23.226;2023-09-18T09:18:19;100411.75;;;27.55;100.00
8941;BME280;4505;43.406;23.226;2023-09-18T09:20:52;100407.34;;;28.41;100.00
8941;BME280;4505;43.406;23.226;2023-09-18T09:23:19;100412.75;;;28.08;100.00
8941;BME280;4505;43.406;23.226;2023-09-18T09:25:47;100409.09;;;28.46;100.00
8941;BME280;4505;43.406;23.226;2023-09-18T09:28:13;100402.19;;;28.81;100.00
8941;BME280;4505;43.406;23.226;2023-09-18T09:30:41;100404.59;;;27.42;100.00
8941;BME280;4505;43.406;23.226;2023-09-18T09:33:09;100404.72;;;26.99;100.00
8941;BME280;4505;43.406;23.226;2023-09-18T09:35:38;100408.72;;;27.02;100.00
8941;BME280;4505;43.406;23.226;2023-09-18T09:38:08;100409.09;;;26.23;100.00
8941;BME280;4505;43.406;23.226;2023-09-18T09:40:38;100404.78;;;26.39;100.00
8941;BME280;4505;43.406;23.226;2023-09-18T09:43:07;100408.56;;;25.96;100.00
8941;BME280;4505;43.406;23.226;2023-09-18T09:45:34;100401.41;;;26.25;100.00
8941;BME280;4505;43.406;23.226;2023-09-18T09:48:03;100401.25;;;26.13;100.00
8941;BME280;4505;43.406;23.226;2023-09-18T09:50:31;100394.81;;;26.86;100.00
8941;BME280;4505;43.406;23.226;2023-09-18T09:52:58;100396.91;;;26.81;100.00
8941;BME280;4505;43.406;23.226;2023-09-18T09:55:25;100392.59;;;26.80;100.00
8941;BME280;4505;43.406;23.226;2023-09-18T09:57:54;100394.25;;;27.10;100.00
8941;BME280;4505;43.406;23.226;2023-09-18T10:00:24;100391.78;;;26.70;100.00
8941;BME280;4505;43.406;23.226;2023-09-18T10:02:59;100389.22;;;26.48;100.00
8941;BME280;4505;43.406;23.226;2023-09-18T10:05:26;100391.63;;;25.51;100.00
8941;BME280;4505;43.406;23.226;2023-09-18T10:07:54;100390.03;;;24.45;100.00
8941;BME280;4505;43.406;23.226;2023-09-18T10:10:25;100387.09;;;25.38;100.00
8941;BME280;4505;43.406;23.226;2023-09-18T10:12:52;100385.06;;;26.42;100.00
8941;BME280;4505;43.406;23.226;2023-09-18T10:15:21;100383.75;;;27.37;100.00
8941;BME280;4505;43.406;23.226;2023-09-18T10:17:50;100386.03;;;27.27;100.00
8941;BME280;4505;43.406;23.226;2023-09-18T10:20:22;100383.66;;;27.83;100.00
8941;BME280;4505;43.406;23.226;2023-09-18T10:22:52;100378.72;;;28.27;100.00
8941;BME280;4505;43.406;23.226;2023-09-18T10:25:20;100379.78;;;27.64;100.00
8941;BME280;4505;43.406;23.226;2023-09-18T10:27:48;100377.38;;;28.12;100.00
8941;BME280;4505;43.406;23.226;2023-09-18T10:30:15;100379.59;;;28.19;100.00
8941;BME280;4505;43.406;23.226;2023-09-18T10:32:43;100362.25;;;28.35;100.00
8941;BME280;4505;43.406;23.226;2023-09-18T10:35:12;100368.28;;;28.08;100.00
8941;BME280;4505;43.406;23.226;2023-09-18T10:37:39;100358.69;;;28.02;100.00
8941;BME280;4505;43.406;23.226;2023-09-18T10:40:08;100356.38;;;28.66;100.00
8941;BME280;4505;43.406;23.226;2023-09-18T10:42:35;100360.19;;;28.97;100.00
8941;BME280;4505;43.406;23.226;2023-09-18T10:45:04;100362.88;;;28.73;100.00
8941;BME280;4505;43.406;23.226;2023-09-18T10:47:31;100349.50;;;29.04;100.00
8941;BME280;4505;43.406;23.226;2023-09-18T10:49:59;100345.16;;;28.05;100.00
8941;BME280;4505;43.406;23.226;2023-09-18T10:52:27;100345.00;;;27.52;100.00
8941;BME280;4505;43.406;23.226;2023-09-18T10:54:54;100341.00;;;28.20;100.00
8941;BME280;4505;43.406;23.226;2023-09-18T10:57:20;100344.09;;;27.98;100.00
8941;BME280;4505;43.406;23.226;2023-09-18T10:59:47;100341.84;;;27.71;100.00
8941;BME280;4505;43.406;23.226;2023-09-18T11:02:14;100337.91;;;27.60;100.00
8941;BME280;4505;43.406;23.226;2023-09-18T11:04:41;100330.53;;;28.43;100.00
8941;BME280;4505;43.406;23.226;2023-09-18T11:07:07;100331.16;;;27.28;100.00
8941;BME280;4505;43.406;23.226;2023-09-18T11:09:42;100332.84;;;25.98;100.00
8941;BME280;4505;43.406;23.226;2023-09-18T11:12:10;100324.50;;;25.21;100.00
8941;BME280;4505;43.406;23.226;2023-09-18T11:14:43;100319.03;;;25.12;100.00
8941;BME280;4505;43.406;23.226;2023-09-18T11:17:29;100325.56;;;25.51;100.00
8941;BME280;4505;43.406;23.226;2023-09-18T11:20:06;100323.44;;;26.12;100.00
8941;BME280;4505;43.406;23.226;2023-09-18T11:22:35;100323.47;;;27.30;100.00
8941;BME280;4505;43.406;23.226;2023-09-18T11:27:54;100330.69;;;28.26;100.00
8941;BME280;4505;43.406;23.226;2023-09-18T11:30:21;100316.94;;;28.01;100.00
8941;BME280;4505;43.406;23.226;2023-09-18T11:32:48;100316.56;;;29.01;100.00
8941;BME280;4505;43.406;23.226;2023-09-18T11:35:15;100317.09;;;28.17;100.00
8941;BME280;4505;43.406;23.226;2023-09-18T11:37:43;100315.56;;;28.28;100.00
8941;BME280;4505;43.406;23.226;2023-09-18T11:45:47;100316.34;;;26.37;100.00
8941;BME280;4505;43.406;23.226;2023-09-18T11:48:16;100310.28;;;26.31;100.00
8941;BME280;4505;43.406;23.226;2023-09-18T11:50:43;100303.97;;;26.65;100.00
8941;BME280;4505;43.406;23.226;2023-09-18T11:53:11;100296.53;;;26.91;100.00
8941;BME280;4505;43.406;23.226;2023-09-18T11:55:39;100292.88;;;26.79;100.00
8941;BME280;4505;43.406;23.226;2023-09-18T11:58:05;100289.81;;;27.96;100.00
8941;BME280;4505;43.406;23.226;2023-09-18T12:00:34;100302.41;;;28.10;100.00
8941;BME280;4505;43.406;23.226;2023-09-18T12:03:14;100282.25;;;28.67;100.00
8941;BME280;4505;43.406;23.226;2023-09-18T12:05:42;100281.47;;;28.14;100.00
8941;BME280;4505;43.406;23.226;2023-09-18T12:08:09;100278.03;;;26.42;100.00
8941;BME280;4505;43.406;23.226;2023-09-18T12:10:37;100274.75;;;26.83;100.00
8941;BME280;4505;43.406;23.226;2023-09-18T12:13:05;100271.69;;;25.78;100.00
8941;BME280;4505;43.406;23.226;2023-09-18T12:15:33;100264.34;;;26.76;100.00
8941;BME280;4505;43.406;23.226;2023-09-18T12:18:09;100272.44;;;26.38;100.00
8941;BME280;4505;43.406;23.226;2023-09-18T12:20:46;100261.09;;;26.19;100.00
8941;BME280;4505;43.406;23.226;2023-09-18T12:23:13;100250.81;;;26.88;100.00
8941;BME280;4505;43.406;23.226;2023-09-18T12:25:39;100255.66;;;28.11;100.00
8941;BME280;4505;43.406;23.226;2023-09-18T12:28:06;100255.78;;;27.73;100.00
8941;BME280;4505;43.406;23.226;2023-09-18T12:30:33;100248.75;;;26.85;100.00
8941;BME280;4505;43.406;23.226;2023-09-18T12:33:00;100253.59;;;26.80;100.00
8941;BME280;4505;43.406;23.226;2023-09-18T12:35:29;100243.34;;;25.71;100.00
8941;BME280;4505;43.406;23.226;2023-09-18T12:37:57;100242.31;;;26.43;100.00
8941;BME280;4505;43.406;23.226;2023-09-18T12:40:24;100244.47;;;27.13;100.00
8941;BME280;4505;43.406;23.226;2023-09-18T12:42:51;100249.50;;;27.32;100.00
8941;BME280;4505;43.406;23.226;2023-09-18T12:45:18;100247.84;;;26.73;100.00
8941;BME280;4505;43.406;23.226;2023-09-18T12:47:45;100245.44;;;26.62;100.00
8941;BME280;4505;43.406;23.226;2023-09-18T12:50:12;100247.34;;;25.90;100.00
8941;BME280;4505;43.406;23.226;2023-09-18T12:52:39;100240.06;;;25.26;100.00
8941;BME280;4505;43.406;23.226;2023-09-18T12:55:07;100236.13;;;25.92;100.00
8941;BME280;4505;43.406;23.226;2023-09-18T12:57:34;100227.00;;;26.22;100.00
8941;BME280;4505;43.406;23.226;2023-09-18T13:00:07;100225.56;;;26.70;100.00